Time;durP1;ratioP1;P1;durP2;ratioP2;P2;SDS_P1;SDS_P2;PMS_P1;PMS_P2;Temp;Humidity;BMP_temperature;BMP_pressure;BME280_temperature;BME280_humidity;BME280_pressure;Samples;Min_cycle;Max_cycle;Signal;HPM_P1;HPM_P2
2022/06/29 00:00:13;;;;;;;8.30;3.20;;;21.60;93.00;;;;;;5021091;28;20072;-66
2022/06/29 00:02:39;;;;;;;6.40;2.95;;;21.50;92.90;;;;;;5021693;28;20036;-67
2022/06/29 00:05:06;;;;;;;8.02;3.78;;;21.50;92.90;;;;;;5021472;28;20025;-65
2022/06/29 00:07:33;;;;;;;7.15;3.55;;;21.50;92.90;;;;;;5022852;28;20021;-67
2022/06/29 00:09:59;;;;;;;8.23;3.10;;;21.50;93.00;;;;;;5021504;28;20029;-68
2022/06/29 00:12:25;;;;;;;2.85;2.47;;;21.50;92.90;;;;;;5021431;28;20495;-69
2022/06/29 00:14:50;;;;;;;5.10;2.88;;;21.40;92.90;;;;;;5022832;28;20080;-65
2022/06/29 00:17:17;;;;;;;11.45;3.58;;;21.50;93.00;;;;;;5021471;28;20030;-66
2022/06/29 00:19:42;;;;;;;4.93;2.55;;;21.40;92.90;;;;;;5021836;28;20080;-69
2022/06/29 00:22:10;;;;;;;5.72;3.40;;;21.40;93.00;;;;;;5020767;28;20021;-68
2022/06/29 00:24:36;;;;;;;8.02;3.33;;;21.40;93.00;;;;;;5020901;28;20471;-68
2022/06/29 00:27:03;;;;;;;3.70;2.83;;;21.40;93.10;;;;;;5021546;28;20021;-65
2022/06/29 00:29:29;;;;;;;4.28;3.17;;;21.40;93.00;;;;;;5022628;28;20022;-66
2022/06/29 00:31:55;;;;;;;5.22;3.60;;;21.40;93.00;;;;;;5022638;28;20045;-66
2022/06/29 00:34:21;;;;;;;8.00;4.70;;;21.40;93.00;;;;;;5021480;28;20076;-66
2022/06/29 00:36:47;;;;;;;20.20;8.57;;;21.40;93.00;;;;;;5020865;28;20030;-67
2022/06/29 00:39:13;;;;;;;8.23;6.25;;;21.40;92.80;;;;;;5022364;28;20025;-67
2022/06/29 00:41:42;;;;;;;8.02;5.65;;;21.40;93.00;;;;;;5021138;28;20026;-67
2022/06/29 00:44:09;;;;;;;6.95;5.70;;;21.40;93.10;;;;;;5020576;28;20099;-67
2022/06/29 00:46:39;;;;;;;8.45;6.07;;;21.40;93.10;;;;;;5021925;28;20399;-68
2022/06/29 00:49:05;;;;;;;6.80;6.18;;;21.40;93.10;;;;;;5023357;28;20010;-66
2022/06/29 00:51:34;;;;;;;13.70;6.68;;;21.40;93.10;;;;;;5020255;28;20084;-65
2022/06/29 00:54:03;;;;;;;9.40;6.57;;;21.40;93.10;;;;;;5021662;28;20031;-68
2022/06/29 00:56:29;;;;;;;7.40;5.43;;;21.40;93.10;;;;;;5022248;28;20025;-65
2022/06/29 00:58:58;;;;;;;6.95;5.78;;;21.40;93.10;;;;;;5019103;28;20022;-69
2022/06/29 01:01:25;;;;;;;10.32;6.25;;;21.40;93.10;;;;;;5019671;28;20017;-67
2022/06/29 01:03:51;;;;;;;10.27;6.93;;;21.40;93.10;;;;;;5020791;28;20025;-67
2022/06/29 01:06:17;;;;;;;9.45;6.93;;;21.40;93.00;;;;;;5021720;28;20482;-65
2022/06/29 01:08:43;;;;;;;6.35;5.30;;;21.30;93.00;;;;;;5020301;28;20439;-70
2022/06/29 01:11:09;;;;;;;8.68;6.90;;;21.30;93.00;;;;;;5019926;28;20463;-67
2022/06/29 01:13:35;;;;;;;7.93;6.07;;;21.30;92.90;;;;;;5022365;28;20022;-68
2022/06/29 01:16:00;;;;;;;13.48;8.65;;;21.30;92.90;;;;;;5021235;28;20482;-68
2022/06/29 01:18:26;;;;;;;9.60;7.30;;;21.30;92.90;;;;;;5021586;28;20025;-69
2022/06/29 01:20:52;;;;;;;12.10;6.05;;;21.30;93.00;;;;;;5019892;28;20156;-67
2022/06/29 01:23:18;;;;;;;11.48;7.13;;;21.30;93.10;;;;;;5020227;28;20033;-68
2022/06/29 01:25:50;;;;;;;19.35;8.27;;;21.20;93.10;;;;;;5021087;28;20025;-66
2022/06/29 01:28:15;;;;;;;12.55;8.30;;;21.20;93.10;;;;;;5021441;28;20431;-67
2022/06/29 01:30:41;;;;;;;11.15;8.25;;;21.20;93.10;;;;;;5024581;28;20029;-68
2022/06/29 01:33:07;;;;;;;16.73;11.20;;;21.20;93.00;;;;;;5025425;28;20049;-67
2022/06/29 01:35:33;;;;;;;13.98;10.25;;;21.20;93.00;;;;;;5023391;28;20446;-66
2022/06/29 01:37:59;;;;;;;27.63;12.55;;;21.20;93.10;;;;;;5023506;28;20036;-67
2022/06/29 01:40:25;;;;;;;16.65;11.32;;;21.20;93.10;;;;;;5024880;28;20024;-68
2022/06/29 01:42:51;;;;;;;20.30;13.02;;;21.20;93.10;;;;;;5023356;28;20025;-69
2022/06/29 01:45:16;;;;;;;32.50;16.45;;;21.20;93.00;;;;;;5025003;28;20038;-66
2022/06/29 01:47:42;;;;;;;18.77;13.52;;;21.20;92.90;;;;;;5024576;28;20030;-66
2022/06/29 01:50:08;;;;;;;19.02;12.75;;;21.20;93.10;;;;;;5023524;28;20022;-68
2022/06/29 01:52:34;;;;;;;19.70;14.25;;;21.30;93.40;;;;;;5025214;28;20422;-66
2022/06/29 01:55:00;;;;;;;28.25;16.52;;;21.30;93.30;;;;;;5022651;28;20033;-68
2022/06/29 01:57:26;;;;;;;25.30;16.75;;;21.30;93.20;;;;;;5023627;28;20033;-67
2022/06/29 01:59:51;;;;;;;23.38;15.50;;;21.30;93.10;;;;;;5025117;28;20104;-65
2022/06/29 02:02:17;;;;;;;31.80;19.23;;;21.40;93.20;;;;;;5023569;28;20022;-69
2022/06/29 02:04:43;;;;;;;32.58;16.30;;;21.30;92.90;;;;;;5023834;28;20347;-66
2022/06/29 02:07:09;;;;;;;21.65;14.15;;;21.30;93.00;;;;;;5024859;28;20022;-67
2022/06/29 02:09:35;;;;;;;20.38;13.55;;;21.40;93.30;;;;;;5021667;28;20044;-65
2022/06/29 02:12:00;;;;;;;19.52;10.55;;;21.40;93.40;;;;;;5025522;28;20101;-68
2022/06/29 02:14:26;;;;;;;19.13;11.55;;;21.50;93.50;;;;;;5024494;28;20025;-67
2022/06/29 02:16:52;;;;;;;16.75;11.93;;;21.50;93.60;;;;;;5022611;28;20104;-68
2022/06/29 02:19:18;;;;;;;14.23;9.70;;;21.60;93.70;;;;;;5024352;28;20437;-68
2022/06/29 02:21:43;;;;;;;18.55;9.30;;;21.60;93.80;;;;;;5023892;28;20025;-68
2022/06/29 02:24:09;;;;;;;16.52;9.88;;;21.60;93.80;;;;;;5022669;28;20649;-67
2022/06/29 02:26:35;;;;;;;18.35;10.57;;;21.70;93.80;;;;;;5024659;28;20048;-66
2022/06/29 02:29:01;;;;;;;15.00;10.45;;;21.80;93.80;;;;;;5022068;28;20026;-67
2022/06/29 02:36:55;;;;;;;15.00;8.53;;;21.90;94.30;;;;;;5022757;28;19952;-67
2022/06/29 02:39:21;;;;;;;11.15;8.05;;;21.90;93.80;;;;;;5022509;28;20030;-68
2022/06/29 02:41:46;;;;;;;11.32;9.32;;;21.90;93.70;;;;;;5022665;28;20029;-68
2022/06/29 02:44:12;;;;;;;13.43;9.85;;;21.90;93.70;;;;;;5021971;28;20072;-68
2022/06/29 02:46:38;;;;;;;11.00;7.20;;;21.90;93.60;;;;;;5023850;28;20027;-68
2022/06/29 02:49:04;;;;;;;10.65;7.18;;;22.00;93.70;;;;;;5023599;28;20018;-69
2022/06/29 02:51:30;;;;;;;11.77;7.78;;;22.00;93.70;;;;;;5020761;28;20034;-69
2022/06/29 02:53:55;;;;;;;9.85;6.97;;;22.00;93.80;;;;;;5022213;28;20022;-67
2022/06/29 02:56:21;;;;;;;10.80;6.95;;;22.00;93.70;;;;;;5023047;28;20026;-65
2022/06/29 02:58:47;;;;;;;9.60;6.32;;;22.00;93.70;;;;;;5023610;28;20030;-66
2022/06/29 03:01:13;;;;;;;8.80;5.72;;;22.00;93.60;;;;;;5021740;28;20071;-68
2022/06/29 03:03:39;;;;;;;7.25;6.43;;;22.10;93.60;;;;;;5023321;28;20045;-67
2022/06/29 03:06:05;;;;;;;11.02;6.68;;;22.10;93.70;;;;;;5023171;28;20483;-66
2022/06/29 03:08:30;;;;;;;12.90;7.60;;;22.10;93.70;;;;;;5021657;28;20034;-68
2022/06/29 03:10:56;;;;;;;10.95;7.72;;;22.10;93.60;;;;;;5024453;28;20024;-66
2022/06/29 03:13:22;;;;;;;17.65;9.40;;;22.10;93.60;;;;;;5022650;28;20028;-66
2022/06/29 03:15:48;;;;;;;12.65;8.80;;;22.10;93.70;;;;;;5023453;28;20041;-67
2022/06/29 03:18:14;;;;;;;10.50;8.10;;;22.10;93.60;;;;;;5021434;28;20072;-68
2022/06/29 03:20:39;;;;;;;12.80;8.38;;;22.10;93.60;;;;;;5022842;28;20589;-67
2022/06/29 03:23:05;;;;;;;15.27;10.13;;;22.10;93.60;;;;;;5022879;28;20399;-66
2022/06/29 03:25:31;;;;;;;14.85;8.85;;;22.10;93.30;;;;;;5021356;28;20050;-66
2022/06/29 03:27:57;;;;;;;13.05;7.97;;;22.10;93.40;;;;;;5023113;28;20075;-68
2022/06/29 03:30:23;;;;;;;10.30;7.68;;;22.10;93.30;;;;;;5022265;28;20022;-68
2022/06/29 03:32:48;;;;;;;9.77;7.00;;;22.10;93.40;;;;;;5020166;28;20467;-66
2022/06/29 03:35:14;;;;;;;18.98;8.07;;;22.10;93.20;;;;;;5021897;28;20025;-67
2022/06/29 03:37:40;;;;;;;17.65;8.95;;;22.10;93.60;;;;;;5021800;28;20072;-69
2022/06/29 03:40:06;;;;;;;11.48;8.43;;;22.10;93.20;;;;;;5021678;28;20067;-69
2022/06/29 03:42:32;;;;;;;16.52;8.20;;;22.00;93.20;;;;;;5021679;28;20028;-68
2022/06/29 03:44:58;;;;;;;11.18;7.53;;;22.10;93.40;;;;;;5021220;28;20042;-67
2022/06/29 03:47:25;;;;;;;9.02;6.18;;;22.00;93.40;;;;;;5021854;28;20040;-69
2022/06/29 03:49:52;;;;;;;13.13;6.97;;;22.10;93.50;;;;;;5022893;28;20029;-66
2022/06/29 03:52:17;;;;;;;9.30;7.15;;;22.10;93.60;;;;;;5021076;28;20072;-68
2022/06/29 03:54:43;;;;;;;21.95;8.55;;;22.10;93.60;;;;;;5021697;28;20034;-69
2022/06/29 03:57:09;;;;;;;14.50;7.45;;;22.10;93.60;;;;;;5022606;28;20061;-68
2022/06/29 03:59:35;;;;;;;14.05;7.75;;;22.10;93.70;;;;;;5019886;28;20014;-70
2022/06/29 04:02:01;;;;;;;10.90;7.88;;;22.10;93.60;;;;;;5022220;28;20020;-69
2022/06/29 04:04:27;;;;;;;17.92;6.43;;;22.10;93.60;;;;;;5022344;28;20029;-66
2022/06/29 04:06:52;;;;;;;13.85;8.43;;;22.10;93.70;;;;;;5020588;28;20021;-68
2022/06/29 04:09:18;;;;;;;15.18;7.88;;;22.20;93.60;;;;;;5024904;28;20377;-69
2022/06/29 04:11:52;;;;;;;15.02;7.70;;;22.20;93.70;;;;;;5021753;28;20475;-66
2022/06/29 04:14:19;;;;;;;15.73;9.52;;;22.20;93.80;;;;;;5021025;28;20025;-66
2022/06/29 04:16:45;;;;;;;19.52;10.50;;;22.20;93.60;;;;;;5021141;28;20132;-66
2022/06/29 04:19:12;;;;;;;16.23;9.10;;;22.20;93.60;;;;;;5021054;28;20033;-69
2022/06/29 04:21:38;;;;;;;17.95;8.65;;;22.20;93.50;;;;;;5020806;28;20022;-69
2022/06/29 04:24:04;;;;;;;13.50;8.98;;;22.20;93.60;;;;;;5021432;28;20017;-69
2022/06/29 04:26:30;;;;;;;14.63;8.73;;;22.20;93.60;;;;;;5020958;28;20112;-67
2022/06/29 04:28:56;;;;;;;13.75;9.65;;;22.20;93.50;;;;;;5022387;28;20024;-68
2022/06/29 04:31:21;;;;;;;16.25;9.23;;;22.20;93.40;;;;;;5021268;28;20025;-68
2022/06/29 04:33:48;;;;;;;14.68;8.68;;;22.20;93.40;;;;;;5020710;28;20053;-66
2022/06/29 04:36:14;;;;;;;14.35;7.75;;;22.20;93.50;;;;;;5022356;28;20501;-66
2022/06/29 04:38:40;;;;;;;14.20;7.70;;;22.20;93.50;;;;;;5020855;28;20025;-67
2022/06/29 04:41:06;;;;;;;9.60;7.15;;;22.20;93.60;;;;;;5020986;28;20014;-67
2022/06/29 04:43:32;;;;;;;11.80;7.55;;;22.20;93.60;;;;;;5022130;28;20108;-66
2022/06/29 04:48:43;;;;;;;13.85;8.82;;;22.20;93.60;;;;;;5021408;28;20052;-69
2022/06/29 04:51:09;;;;;;;14.13;10.18;;;22.20;93.40;;;;;;5020445;28;20431;-68
2022/06/29 04:53:35;;;;;;;13.95;9.55;;;22.10;93.10;;;;;;5021991;28;20029;-67
2022/06/29 04:56:01;;;;;;;13.77;8.95;;;22.10;93.20;;;;;;5022147;28;20036;-70
2022/06/29 04:58:27;;;;;;;22.08;9.25;;;22.10;93.30;;;;;;5021649;28;20034;-69
2022/06/29 05:00:53;;;;;;;16.95;10.07;;;22.10;93.50;;;;;;5020009;28;20018;-69
2022/06/29 05:03:19;;;;;;;16.70;10.40;;;22.10;93.40;;;;;;5019755;28;20034;-68
2022/06/29 05:05:47;;;;;;;13.05;8.57;;;22.10;93.20;;;;;;5026507;28;20070;-67
2022/06/29 05:08:15;;;;;;;12.35;7.85;;;22.10;93.90;;;;;;5024099;28;20416;-68
2022/06/29 05:10:42;;;;;;;10.10;8.68;;;22.10;93.70;;;;;;5024692;28;20416;-66
2022/06/29 05:13:10;;;;;;;13.68;8.90;;;22.10;93.70;;;;;;5026306;28;20035;-68
2022/06/29 05:15:37;;;;;;;12.65;9.43;;;22.20;93.90;;;;;;5023867;28;20093;-67
2022/06/29 05:18:03;;;;;;;12.98;9.90;;;22.20;93.90;;;;;;5024397;28;20018;-66
2022/06/29 05:20:29;;;;;;;15.40;10.07;;;22.20;93.90;;;;;;5025211;28;20022;-66
2022/06/29 05:22:55;;;;;;;14.02;10.30;;;22.20;93.90;;;;;;5023360;28;20064;-68
2022/06/29 05:25:21;;;;;;;21.95;13.27;;;22.20;93.90;;;;;;5023002;28;20025;-68
2022/06/29 05:27:47;;;;;;;25.23;14.23;;;22.20;93.80;;;;;;5023899;28;20476;-69
2022/06/29 05:30:13;;;;;;;24.55;14.85;;;22.30;93.80;;;;;;5024232;28;20025;-67
2022/06/29 05:32:39;;;;;;;23.48;15.13;;;22.30;93.80;;;;;;5034106;28;20108;-70
2022/06/29 05:35:07;;;;;;;28.17;17.73;;;22.30;93.80;;;;;;5035505;28;20495;-68
2022/06/29 05:37:33;;;;;;;34.60;18.35;;;22.20;93.40;;;;;;5023099;28;20056;-66
2022/06/29 05:39:59;;;;;;;22.58;15.63;;;22.10;93.10;;;;;;5022797;28;20060;-69
2022/06/29 05:42:25;;;;;;;29.52;16.58;;;22.20;93.40;;;;;;5024437;28;20547;-67
2022/06/29 05:44:51;;;;;;;26.48;15.70;;;22.20;93.60;;;;;;5018361;28;20342;-68
2022/06/29 05:47:16;;;;;;;25.05;16.65;;;22.20;93.60;;;;;;5024808;28;20025;-66
2022/06/29 05:49:43;;;;;;;20.75;15.35;;;22.30;93.80;;;;;;5025374;28;20036;-69
2022/06/29 05:52:08;;;;;;;21.48;14.48;;;22.30;93.90;;;;;;5023028;28;20034;-68
2022/06/29 05:54:34;;;;;;;22.48;15.57;;;22.30;93.90;;;;;;5026715;28;20363;-67
2022/06/29 05:57:00;;;;;;;19.55;13.40;;;22.30;93.90;;;;;;5025410;28;20065;-69
2022/06/29 05:59:26;;;;;;;20.40;13.75;;;22.30;93.90;;;;;;5021868;28;20022;-69
2022/06/29 06:01:52;;;;;;;21.60;12.98;;;22.40;94.00;;;;;;5022091;28;20017;-69
2022/06/29 06:04:18;;;;;;;23.90;13.43;;;22.40;93.90;;;;;;5025334;28;20467;-69
2022/06/29 06:06:44;;;;;;;16.75;12.25;;;22.40;93.80;;;;;;5028579;28;20625;-68
2022/06/29 06:09:10;;;;;;;22.40;13.80;;;22.40;94.00;;;;;;5018816;28;20034;-67
2022/06/29 06:11:36;;;;;;;17.55;12.93;;;22.40;93.80;;;;;;5022806;28;20028;-69
2022/06/29 06:14:02;;;;;;;15.38;12.75;;;22.40;93.80;;;;;;5021661;28;20051;-68
2022/06/29 06:16:28;;;;;;;19.45;11.93;;;22.30;93.30;;;;;;5015515;28;20018;-67
2022/06/29 06:18:54;;;;;;;19.15;12.27;;;22.30;93.40;;;;;;5014905;28;20026;-67
2022/06/29 06:21:21;;;;;;;17.73;12.05;;;22.40;93.60;;;;;;5015128;28;20490;-67
2022/06/29 06:23:47;;;;;;;16.58;12.30;;;22.40;93.50;;;;;;5028243;28;20026;-68
2022/06/29 06:26:14;;;;;;;19.35;14.32;;;22.40;93.50;;;;;;5034814;28;20088;-66
2022/06/29 06:28:40;;;;;;;21.63;15.15;;;22.30;93.40;;;;;;5034819;28;20034;-67
2022/06/29 06:31:07;;;;;;;20.23;15.25;;;22.30;93.20;;;;;;5034605;28;20443;-68
2022/06/29 06:33:36;;;;;;;22.55;13.70;;;22.30;93.20;;;;;;5034600;28;20112;-68
2022/06/29 06:36:02;;;;;;;14.77;11.70;;;22.20;93.00;;;;;;5034777;28;20068;-69
2022/06/29 06:38:28;;;;;;;26.88;11.05;;;22.20;92.90;;;;;;5033144;28;20052;-67
2022/06/29 06:43:38;;;;;;;16.02;9.40;;;22.20;93.10;;;;;;5034430;28;20071;-67
2022/06/29 06:46:05;;;;;;;37.00;12.73;;;22.20;93.30;;;;;;5034303;28;20487;-68
2022/06/29 06:48:32;;;;;;;15.65;11.18;;;22.10;93.20;;;;;;5034585;28;20070;-68
2022/06/29 06:50:57;;;;;;;18.02;12.05;;;22.10;93.50;;;;;;5034441;28;20097;-67
2022/06/29 06:53:23;;;;;;;13.60;11.73;;;22.10;93.70;;;;;;5034437;28;20485;-67
2022/06/29 06:55:49;;;;;;;14.23;12.50;;;22.10;94.00;;;;;;5034427;28;20387;-67
2022/06/29 06:58:15;;;;;;;20.02;15.43;;;22.20;94.30;;;;;;5034332;28;20079;-70
2022/06/29 07:00:41;;;;;;;21.23;16.48;;;22.20;94.40;;;;;;5034318;28;20475;-69
2022/06/29 07:03:07;;;;;;;21.45;15.02;;;22.30;94.60;;;;;;5034232;28;20129;-67
2022/06/29 07:05:32;;;;;;;19.02;15.25;;;22.40;94.70;;;;;;5034093;28;20018;-69
2022/06/29 07:07:58;;;;;;;19.10;16.10;;;22.40;94.80;;;;;;5034195;28;20036;-68
2022/06/29 07:10:24;;;;;;;19.75;15.65;;;22.50;94.80;;;;;;5032823;28;20033;-67
2022/06/29 07:12:50;;;;;;;16.95;12.98;;;22.50;94.70;;;;;;5034004;28;20033;-69
2022/06/29 07:15:16;;;;;;;17.80;15.27;;;22.50;94.80;;;;;;5033864;28;20092;-67
2022/06/29 07:17:41;;;;;;;19.05;14.95;;;22.60;94.80;;;;;;5033735;28;20029;-67
2022/06/29 07:20:09;;;;;;;20.17;14.75;;;22.60;94.70;;;;;;5033926;28;20096;-70
2022/06/29 07:22:35;;;;;;;21.75;14.90;;;22.60;94.60;;;;;;5033816;28;20108;-67
2022/06/29 07:25:01;;;;;;;16.30;13.20;;;22.70;94.40;;;;;;5033733;28;20108;-69
2022/06/29 07:27:27;;;;;;;14.43;11.80;;;22.60;94.00;;;;;;5033460;28;20017;-67
2022/06/29 07:29:52;;;;;;;15.45;11.65;;;22.60;93.80;;;;;;5032420;28;20018;-69
2022/06/29 07:32:20;;;;;;;16.75;12.00;;;22.60;93.90;;;;;;5033866;28;20471;-69
2022/06/29 07:34:46;;;;;;;15.68;11.73;;;22.50;93.80;;;;;;5033558;28;20044;-69
2022/06/29 07:37:12;;;;;;;14.60;11.65;;;22.60;94.00;;;;;;5033534;28;20108;-68
2022/06/29 07:39:38;;;;;;;14.95;11.55;;;22.60;94.10;;;;;;5033470;28;20018;-70
2022/06/29 07:42:04;;;;;;;11.63;10.30;;;22.70;94.00;;;;;;5032317;28;20021;-70
2022/06/29 07:44:31;;;;;;;13.90;10.75;;;22.70;94.30;;;;;;5032094;28;20483;-68
2022/06/29 07:46:56;;;;;;;15.00;10.20;;;22.70;94.20;;;;;;5033611;28;20026;-67
2022/06/29 07:49:23;;;;;;;13.43;10.77;;;22.80;94.30;;;;;;5033325;28;20026;-68
2022/06/29 07:51:49;;;;;;;12.70;9.85;;;22.90;94.40;;;;;;5033431;28;20022;-67
2022/06/29 07:54:15;;;;;;;11.77;10.07;;;22.90;94.30;;;;;;5032032;28;20053;-70
2022/06/29 07:56:41;;;;;;;13.95;9.65;;;23.00;94.60;;;;;;5033293;28;20053;-70
2022/06/29 07:59:07;;;;;;;11.90;9.15;;;23.10;95.00;;;;;;5031838;28;20467;-69
2022/06/29 08:01:33;;;;;;;11.32;9.40;;;23.10;95.20;;;;;;5033239;28;20030;-69
2022/06/29 08:03:59;;;;;;;12.35;9.48;;;23.20;95.30;;;;;;5033043;28;20021;-68
2022/06/29 08:06:25;;;;;;;10.18;8.88;;;23.30;95.10;;;;;;5033173;28;20026;-67
2022/06/29 08:08:52;;;;;;;11.25;8.27;;;23.40;94.90;;;;;;5031633;28;20021;-67
2022/06/29 08:11:17;;;;;;;11.25;8.57;;;23.40;94.70;;;;;;5031878;28;20025;-68
2022/06/29 08:13:43;;;;;;;11.20;9.30;;;23.30;94.10;;;;;;5033051;28;20395;-69
2022/06/29 08:16:10;;;;;;;11.07;8.80;;;23.30;93.90;;;;;;5032965;28;20029;-69
2022/06/29 08:18:37;;;;;;;13.05;8.55;;;23.30;93.70;;;;;;5031720;28;20037;-68
2022/06/29 08:21:04;;;;;;;9.70;8.68;;;23.30;94.30;;;;;;5033018;28;20030;-69
2022/06/29 08:23:30;;;;;;;10.88;9.65;;;23.30;94.20;;;;;;5033074;28;20446;-70
2022/06/29 08:25:58;;;;;;;12.57;9.48;;;23.40;94.40;;;;;;5032948;28;20026;-69
2022/06/29 08:28:25;;;;;;;11.18;8.85;;;23.40;94.60;;;;;;5031534;28;20030;-68
2022/06/29 08:30:51;;;;;;;13.95;10.00;;;23.50;94.80;;;;;;5032819;28;20026;-67
2022/06/29 08:33:17;;;;;;;13.18;10.55;;;23.50;94.60;;;;;;5032818;28;20487;-68
2022/06/29 08:35:43;;;;;;;11.68;10.48;;;23.60;94.50;;;;;;5031585;28;20082;-67
2022/06/29 08:38:09;;;;;;;14.77;12.52;;;23.50;94.30;;;;;;5031910;28;20108;-69
2022/06/29 08:40:48;;;;;;;20.00;11.50;;;23.50;94.00;;;;;;5032813;28;20024;-69
2022/06/29 08:43:16;;;;;;;14.48;11.35;;;23.50;94.10;;;;;;5032741;28;20028;-69
2022/06/29 08:45:44;;;;;;;12.93;10.07;;;23.50;93.70;;;;;;5032553;28;20554;-68
2022/06/29 08:48:12;;;;;;;11.32;9.55;;;23.50;93.60;;;;;;5032632;28;20032;-69
2022/06/29 08:50:43;;;;;;;10.80;9.70;;;23.50;93.70;;;;;;5032668;28;20036;-67
2022/06/29 08:53:13;;;;;;;10.68;8.55;;;23.50;93.70;;;;;;5032529;28;20026;-68
2022/06/29 08:55:45;;;;;;;12.85;9.93;;;23.50;93.90;;;;;;5032572;28;20029;-70
2022/06/29 08:58:31;;;;;;;12.68;9.98;;;23.50;94.20;;;;;;5032525;28;20022;-68
2022/06/29 09:00:57;;;;;;;17.08;9.85;;;23.60;94.60;;;;;;5032596;28;20017;-68
2022/06/29 09:03:23;;;;;;;15.73;10.00;;;23.70;94.60;;;;;;5032576;28;20017;-69
2022/06/29 09:05:54;;;;;;;15.32;10.02;;;23.70;94.70;;;;;;5032650;28;20029;-67
2022/06/29 09:08:21;;;;;;;19.95;11.43;;;23.80;95.00;;;;;;5032696;28;20420;-70
2022/06/29 09:10:47;;;;;;;12.02;10.02;;;23.80;94.20;;;;;;5032597;28;20069;-67
2022/06/29 09:13:20;;;;;;;19.25;10.65;;;23.80;94.40;;;;;;5032500;28;20061;-67
2022/06/29 09:15:46;;;;;;;12.88;11.07;;;23.90;94.50;;;;;;5032571;28;20552;-67
2022/06/29 09:18:34;;;;;;;12.32;10.23;;;23.90;94.10;;;;;;5032408;28;20034;-69
2022/06/29 09:21:05;;;;;;;12.80;9.70;;;23.90;94.40;;;;;;5032529;28;20028;-70
2022/06/29 09:23:33;;;;;;;11.02;9.20;;;23.90;94.20;;;;;;5031246;28;20022;-68
2022/06/29 09:26:00;;;;;;;12.07;9.40;;;23.90;94.00;;;;;;5032437;28;20044;-70
2022/06/29 09:28:31;;;;;;;14.15;9.02;;;23.90;94.00;;;;;;5032417;28;20025;-68
2022/06/29 09:30:59;;;;;;;16.08;10.32;;;23.90;94.00;;;;;;5032447;28;20022;-69
2022/06/29 09:33:30;;;;;;;13.95;9.52;;;23.90;94.00;;;;;;5032242;28;20029;-67
2022/06/29 09:36:17;;;;;;;12.23;8.40;;;23.90;94.10;;;;;;5032384;28;20147;-70
2022/06/29 09:38:44;;;;;;;10.75;8.38;;;23.90;94.40;;;;;;5032309;28;20109;-67
2022/06/29 09:41:14;;;;;;;10.05;8.30;;;23.90;94.30;;;;;;5032199;28;20075;-68
2022/06/29 09:43:45;;;;;;;15.70;9.70;;;23.90;94.30;;;;;;5032375;28;20048;-69
2022/06/29 09:46:13;;;;;;;13.55;8.85;;;23.90;94.30;;;;;;5032149;28;20041;-70
2022/06/29 09:48:40;;;;;;;13.60;9.85;;;23.90;94.30;;;;;;5032624;28;20100;-68
2022/06/29 09:54:05;;;;;;;13.43;9.80;;;23.90;94.10;;;;;;5035752;28;20498;-66
2022/06/29 09:56:31;;;;;;;11.25;9.25;;;23.90;94.10;;;;;;5035645;28;20056;-67
2022/06/29 09:58:59;;;;;;;11.38;9.75;;;23.80;93.80;;;;;;5035518;28;20032;-67
2022/06/29 10:04:11;;;;;;;14.73;10.55;;;23.80;93.80;;;;;;5035615;28;20041;-66
2022/06/29 10:06:38;;;;;;;16.98;12.02;;;23.70;93.60;;;;;;5035255;28;20028;-69
2022/06/29 10:09:04;;;;;;;14.02;11.70;;;23.60;93.10;;;;;;5034860;28;20048;-68
2022/06/29 10:14:56;;;;;;;15.23;9.63;;;23.50;93.40;;;;;;5035317;28;20041;-68
2022/06/29 10:17:34;;;;;;;13.85;11.15;;;23.50;94.10;;;;;;5034017;28;20064;-70
2022/06/29 10:20:24;;;;;;;12.18;10.57;;;23.60;94.10;;;;;;5035197;28;20018;-66
2022/06/29 10:22:51;;;;;;;14.98;11.95;;;23.60;94.60;;;;;;5033918;28;20076;-67
2022/06/29 10:25:17;;;;;;;15.35;12.02;;;23.70;94.80;;;;;;5034846;28;20100;-68
2022/06/29 10:28:09;;;;;;;15.55;13.15;;;23.70;94.90;;;;;;5035090;28;20105;-67
2022/06/29 10:30:37;;;;;;;22.98;16.60;;;23.70;95.10;;;;;;5035035;28;20021;-70
2022/06/29 10:33:35;;;;;;;23.73;18.35;;;23.70;94.20;;;;;;5034839;28;20056;-67
2022/06/29 10:36:06;;;;;;;27.55;19.95;;;23.70;94.20;;;;;;5034887;28;20108;-68
2022/06/29 10:39:15;;;;;;;34.92;25.48;;;23.70;94.00;;;;;;5034639;28;20108;-68
2022/06/29 10:45:01;;;;;;;39.08;22.27;;;23.60;93.50;;;;;;5034259;28;20057;-68
2022/06/29 10:47:27;;;;;;;29.55;21.80;;;23.60;94.00;;;;;;5032542;28;20029;-70
2022/06/29 10:50:16;;;;;;;29.90;20.92;;;23.60;93.60;;;;;;5034615;28;20376;-68
2022/06/29 10:52:44;;;;;;;28.70;18.45;;;23.60;94.40;;;;;;5034589;28;20053;-69
2022/06/29 10:55:11;;;;;;;22.88;18.65;;;23.70;94.40;;;;;;5034528;28;20052;-67
2022/06/29 10:57:38;;;;;;;25.77;19.40;;;23.80;94.90;;;;;;5034421;28;20017;-68
2022/06/29 11:00:10;;;;;;;26.92;19.38;;;23.90;95.20;;;;;;5033837;28;20471;-65
2022/06/29 11:02:36;;;;;;;28.08;20.48;;;24.00;95.60;;;;;;5034163;28;20031;-66
2022/06/29 11:05:04;;;;;;;37.05;25.17;;;24.10;95.80;;;;;;5034321;28;20022;-67
2022/06/29 11:12:58;;;;;;;47.53;32.70;;;24.70;96.90;;;;;;5034251;28;20045;-68
2022/06/29 11:15:39;;;;;;;50.40;33.50;;;25.00;97.10;;;;;;5034230;28;20504;-66
2022/06/29 11:18:12;;;;;;;45.63;32.03;;;25.30;98.00;;;;;;5033979;28;20372;-69
2022/06/29 11:20:40;;;;;;;50.92;31.40;;;25.50;97.60;;;;;;5034155;28;20025;-69
2022/06/29 11:23:10;;;;;;;46.00;31.45;;;25.80;97.40;;;;;;5034248;28;20430;-69
2022/06/29 11:25:37;;;;;;;41.97;29.70;;;25.90;96.90;;;;;;5033854;28;20025;-68
2022/06/29 11:28:04;;;;;;;40.42;29.58;;;26.00;96.30;;;;;;5033912;28;20537;-69
2022/06/29 11:30:30;;;;;;;38.75;27.55;;;26.20;96.20;;;;;;5033897;28;20025;-69
2022/06/29 11:32:56;;;;;;;34.65;26.98;;;26.30;96.30;;;;;;5033772;28;20368;-69
2022/06/29 11:35:25;;;;;;;35.40;24.58;;;26.50;95.90;;;;;;5033787;28;20053;-69
2022/06/29 11:38:05;;;;;;;32.10;24.58;;;26.60;96.10;;;;;;5033645;28;20079;-68
2022/06/29 11:40:41;;;;;;;30.88;24.00;;;26.80;96.70;;;;;;5033712;28;20024;-67
2022/06/29 11:43:14;;;;;;;31.63;23.50;;;27.00;97.40;;;;;;5033609;28;20018;-68
2022/06/29 11:45:47;;;;;;;30.58;22.20;;;27.20;97.20;;;;;;5033499;28;20053;-68
2022/06/29 11:48:20;;;;;;;30.35;23.17;;;27.50;98.20;;;;;;5033559;28;20045;-65
2022/06/29 11:50:51;;;;;;;33.50;22.92;;;27.80;98.40;;;;;;5033607;28;20104;-69
2022/06/29 11:53:40;;;;;;;28.60;21.70;;;27.90;96.10;;;;;;5033460;28;20029;-69
2022/06/29 11:56:11;;;;;;;24.35;20.50;;;27.90;96.10;;;;;;5033379;28;20029;-66
2022/06/29 11:58:40;;;;;;;23.13;18.70;;;27.90;94.90;;;;;;5031895;28;20410;-67
2022/06/29 12:01:13;;;;;;;21.77;17.13;;;27.90;94.40;;;;;;5033221;28;20018;-68
2022/06/29 12:03:47;;;;;;;24.35;15.98;;;27.90;94.40;;;;;;5033069;28;20491;-69
2022/06/29 12:06:14;;;;;;;;;;;28.00;94.60;;;;;;5033510;28;20026;-67
2022/06/29 12:08:39;;;;;;;18.20;14.32;;;28.20;95.80;;;;;;5033232;28;20348;-67
2022/06/29 12:11:05;;;;;;;17.98;14.82;;;28.30;94.70;;;;;;5033161;28;20060;-68
2022/06/29 12:13:31;;;;;;;16.25;14.05;;;28.40;95.30;;;;;;5032905;28;20029;-67
2022/06/29 12:15:57;;;;;;;22.23;15.32;;;28.50;95.20;;;;;;5033244;28;20036;-66
2022/06/29 12:18:23;;;;;;;19.33;14.85;;;28.70;95.10;;;;;;5032985;28;20116;-67
2022/06/29 12:20:49;;;;;;;21.85;14.82;;;28.70;95.40;;;;;;5033142;28;20104;-68
2022/06/29 12:23:15;;;;;;;20.10;15.30;;;28.90;95.90;;;;;;5031807;28;20022;-70
2022/06/29 12:25:41;;;;;;;20.00;15.52;;;29.00;95.70;;;;;;5031757;28;20029;-68
2022/06/29 12:28:07;;;;;;;17.73;15.05;;;29.00;94.40;;;;;;5032891;28;20036;-66
2022/06/29 12:30:34;;;;;;;22.42;14.00;;;29.00;93.90;;;;;;5032778;28;20143;-69
2022/06/29 12:33:00;;;;;;;15.75;12.15;;;29.10;94.20;;;;;;5032779;28;20469;-67
2022/06/29 12:35:26;;;;;;;15.27;10.02;;;29.20;94.60;;;;;;5032772;28;20152;-69
2022/06/29 12:37:57;;;;;;;13.25;9.77;;;29.30;94.20;;;;;;5032754;28;20078;-69
2022/06/29 12:40:26;;;;;;;18.63;10.15;;;29.40;94.80;;;;;;5032754;28;20536;-68
2022/06/29 12:42:53;;;;;;;13.13;9.35;;;29.50;94.40;;;;;;5031535;28;20448;-66
2022/06/29 12:45:19;;;;;;;14.55;10.25;;;29.60;95.00;;;;;;5032625;28;20052;-67
2022/06/29 12:47:45;;;;;;;9.65;8.32;;;29.60;93.80;;;;;;5032660;28;20025;-66
2022/06/29 12:50:12;;;;;;;8.57;7.45;;;29.60;93.40;;;;;;5032833;28;20029;-68
2022/06/29 12:52:42;;;;;;;9.13;7.95;;;29.60;93.20;;;;;;5032715;28;20022;-69
2022/06/29 12:55:10;;;;;;;9.52;7.93;;;29.50;93.10;;;;;;5032702;28;20099;-68
2022/06/29 12:57:36;;;;;;;9.70;7.20;;;29.50;93.10;;;;;;5032643;28;20021;-67
2022/06/29 13:00:03;;;;;;;11.02;7.28;;;29.50;93.40;;;;;;5032773;28;20475;-66
2022/06/29 13:02:31;;;;;;;9.43;6.53;;;29.60;93.80;;;;;;5032676;28;20029;-66